• Join FlightAware (Why Join?)
  • Login
  • US Flag 
10:36AM EDT


 

Airport Tracker/Info


-or-


 

Live Flight TrackerFlight Track Log ✈ AMX169 ✈ 13-Jul-2013 ✈ MMCL / CUL - MMMX / MEX

Flight Track Log - Related Links

Times and Time Zones

All times are in EDT time to prevent confusion due to time zone crossing. See the AMX169 flight status page for this flight to view local times or setup timezone preferences in your user account.

Time Position Orientation Groundspeed Altitude Reporting Facility
EDT Latitude Longitude Course Direction KTS MPH feet Rate Location/Type
08:12AM 24.7690 -107.4720 284° West 22 25  Level FlightAware
08:12AM 24.7680 -107.4730 222° Southwest 27 31 60 Level FlightAware
08:13AM 24.7660 -107.4740 204° Southwest 17 20 60 Level FlightAware
08:13AM 24.7640 -107.4760 222° Southwest 20 23 60 Level FlightAware
08:14AM 24.7620 -107.4770 204° Southwest 20 23 60 Level FlightAware
08:14AM 24.7600 -107.4790 222° Southwest 21 24 120 Level FlightAware
08:14AM 24.7580 -107.4800 204° Southwest 21 24 120 Level FlightAware
08:15AM 24.7570 -107.4810 222° Southwest 33 38 120 Level FlightAware
08:16AM 24.7610 -107.4780 123° Southeast 105 121 180 Level FlightAware
08:17AM 24.6477 -107.2937 123° Southeast  Level Estimated
08:17AM 24.7750 -107.4680 33° Northeast 165 190 400  Level FlightAware
08:17AM 24.7950 -107.4550 31° Northeast 172 198 1,600 1,680 Climbing FlightAware
08:18AM 24.8160 -107.4390 35° Northeast 219 252 2,100 1,500 Climbing FlightAware
08:18AM 24.8450 -107.4200 31° Northeast 261 300 3,000 2,460 Climbing FlightAware
08:19AM 24.8720 -107.3990 35° Northeast 270 311 4,400 3,000 Climbing FlightAware
08:19AM 24.8790 -107.3840 63° Northeast 272 313 5,000 3,000 Climbing FlightAware
08:19AM 24.8810 -107.3710 80° East 275 316 5,500 3,120 Climbing FlightAware
08:20AM 24.8600 -107.3290 119° Southeast 283 326 7,300 3,000 Climbing FlightAware
08:20AM 24.8340 -107.3120 149° Southeast 288 331 8,400 2,880 Climbing FlightAware
08:21AM 24.7980 -107.2980 161° South 289 333 9,800 2,160 Climbing FlightAware
08:21AM 24.7470 -107.2950 177° South 326 375 10,800 1,800 Climbing FlightAware
08:22AM 24.6590 -107.2820 172° South 352 405 12,700 2,160 Climbing FlightAware
08:22AM 24.6420 -107.2600 130° Southeast 350 403 13,500 2,940 Climbing FlightAware
08:23AM 24.6090 -107.2010 122° Southeast 355 409 15,400 2,760 Climbing FlightAware
08:24AM 24.5690 -107.1310 122° Southeast 366 421 17,400 2,640 Climbing FlightAware
08:24AM 24.5360 -107.0730 122° Southeast 371 427 19,000 2,400 Climbing FlightAware
08:25AM 24.4940 -106.9990 122° Southeast 386 444 20,700 2,100 Climbing FlightAware
08:26AM 24.4520 -106.9250 122° Southeast 399 459 22,200 1,920 Climbing FlightAware
08:27AM 24.4120 -106.8540 122° Southeast 410 472 23,400 1,860 Climbing FlightAware
08:27AM 24.3710 -106.7810 122° Southeast 420 483 24,700 1,800 Climbing FlightAware
08:28AM 24.3290 -106.7090 123° Southeast 426 490 25,800 1,620 Climbing FlightAware
08:29AM 24.2810 -106.6240 122° Southeast 435 501 27,100 1,500 Climbing FlightAware
08:29AM 24.2330 -106.5410 122° Southeast 445 512 28,100 1,320 Climbing FlightAware
08:30AM 24.1890 -106.4640 122° Southeast 455 524 29,000 1,260 Climbing FlightAware
08:31AM 24.1440 -106.3860 122° Southeast 462 532 29,800 1,320 Climbing FlightAware
08:31AM 24.0930 -106.2970 122° Southeast 465 535 30,900 1,680 Climbing FlightAware
08:32AM 24.0490 -106.2190 122° Southeast 460 529 32,200 1,680 Climbing FlightAware
08:33AM 24.0070 -106.1470 123° Southeast 461 531 33,100 1,320 Climbing FlightAware
08:33AM 23.9620 -106.0680 122° Southeast 464 534 33,900 1,260 Climbing FlightAware
08:34AM 23.9170 -105.9910 123° Southeast 465 535 34,800 1,380 Climbing FlightAware
08:35AM 23.8470 -105.8710 123° Southeast 463 533 36,200 1,380 Climbing FlightAware
08:36AM 23.8010 -105.7920 122° Southeast 460 529 37,100 1,260 Climbing FlightAware
08:36AM 23.7520 -105.7060 122° Southeast 456 525 38,000 1,140 Climbing FlightAware
08:37AM 23.7020 -105.6210 123° Southeast 454 522 38,800 660 Climbing FlightAware
08:38AM 23.6560 -105.5420 122° Southeast 456 525 39,000 120 Climbing FlightAware
08:38AM 23.6110 -105.4660 123° Southeast 457 526 39,000  Level FlightAware
08:39AM 23.5520 -105.3630 122° Southeast 446 513 39,000  Level FlightAware
08:40AM 23.5180 -105.3050 123° Southeast 446 513 39,000  Level FlightAware
08:41AM 23.4730 -105.2250 122° Southeast 446 513 39,000  Level FlightAware
08:41AM 23.4390 -105.1670 123° Southeast 446 513 39,000  Level FlightAware
08:42AM 23.4060 -105.1090 122° Southeast 446 513 39,000  Level FlightAware
08:43AM 23.3500 -105.0110 122° Southeast 446 513 39,000  Level FlightAware
08:44AM 23.3170 -104.9530 122° Southeast 446 513 39,000  Level FlightAware
08:44AM 23.2720 -104.8750 122° Southeast 446 513 39,000  Level FlightAware
08:45AM 23.2380 -104.8150 122° Southeast 446 513 39,000  Level FlightAware
08:46AM 23.1930 -104.7380 122° Southeast 446 513 39,000  Level FlightAware
08:47AM 23.1600 -104.6790 121° Southeast 446 513 39,000  Level FlightAware
08:47AM 23.1250 -104.6200 123° Southeast 446 513 39,000  Level FlightAware
08:48AM 23.0800 -104.5420 122° Southeast 446 513 39,000  Level FlightAware
08:49AM 23.0470 -104.4840 122° Southeast 446 513 39,000  Level FlightAware
08:51AM 22.9249 -104.2919 125° Southeast  Level Estimated
08:52AM 22.8632 -104.1952 125° Southeast  Level Estimated
08:53AM 22.8015 -104.0986 125° Southeast  Level Estimated
08:54AM 22.7398 -104.0020 125° Southeast  Level Estimated
08:55AM 22.6779 -103.9056 125° Southeast  Level Estimated
08:55AM 22.5120 -103.6210 125° Southeast 447 514 39,000  Level FlightAware
08:55AM 22.4710 -103.5530 123° Southeast 447 514 39,000  Level FlightAware
08:56AM 22.4250 -103.4790 124° Southeast 446 513 39,000  Level FlightAware
08:57AM 22.3790 -103.4040 124° Southeast 446 513 39,000  Level FlightAware
08:57AM 22.3430 -103.3440 123° Southeast 445 512 39,000  Level FlightAware
08:58AM 22.2990 -103.2700 123° Southeast 444 511 39,000  Level FlightAware
08:59AM 22.2540 -103.1950 123° Southeast 444 511 39,000  Level FlightAware
08:59AM 22.2040 -103.1130 123° Southeast 443 510 39,000  Level FlightAware
09:00AM 22.1590 -103.0390 123° Southeast 444 511 39,000  Level FlightAware
09:01AM 22.1080 -102.9560 124° Southeast 444 511 39,000  Level FlightAware
09:02AM 22.0540 -102.8660 123° Southeast 442 509 39,000  Level FlightAware
09:02AM 22.0080 -102.7930 124° Southeast 442 509 39,000  Level FlightAware
09:03AM 21.9710 -102.7340 124° Southeast 450 518 39,000  Level FlightAware
09:03AM 21.9310 -102.6700 124° Southeast 451 519 39,000  Level FlightAware
09:04AM 21.8780 -102.5850 124° Southeast 455 524 39,000  Level FlightAware
09:05AM 21.8240 -102.4990 124° Southeast 456 525 39,000  Level FlightAware
09:06AM 21.7810 -102.4300 124° Southeast 457 526 39,000  Level FlightAware
09:06AM 21.7270 -102.3430 124° Southeast 457 526 39,000  Level FlightAware
09:07AM 21.6870 -102.2610 118° Southeast 457 526 39,000  Level FlightAware
09:08AM 21.6530 -102.1780 114° Southeast 456 525 39,000  Level FlightAware
09:08AM 21.6130 -102.0820 114° Southeast 456 525 39,000  Level FlightAware
09:09AM 21.5810 -102.0050 114° Southeast 456 525 39,000  Level FlightAware
09:10AM 21.5490 -101.9300 115° Southeast 455 524 39,000  Level FlightAware
09:10AM 21.5130 -101.8420 114° Southeast 455 524 39,000  Level FlightAware
09:11AM 21.4820 -101.7690 115° Southeast 454 522 39,000  Level FlightAware
09:12AM 21.4400 -101.6690 114° Southeast 453 521 39,000  Level FlightAware
09:12AM 21.4050 -101.5840 114° Southeast 454 522 39,000  Level FlightAware
09:13AM 21.3680 -101.4970 115° Southeast 454 522 39,000  Level FlightAware
09:14AM 21.3310 -101.4080 114° Southeast 456 525 39,000  Level FlightAware
09:15AM 21.2970 -101.3350 117° Southeast 457 526 39,000  Level FlightAware
09:15AM 21.2510 -101.2570 122° Southeast 458 527 39,000  Level FlightAware
09:16AM 21.2060 -101.1810 122° Southeast 458 527 39,000  Level FlightAware
09:17AM 21.1600 -101.1040 123° Southeast 459 528 39,000  Level FlightAware
09:17AM 21.1170 -101.0300 122° Southeast 459 528 39,000  Level FlightAware
09:18AM 21.0710 -100.9530 123° Southeast 460 529 39,000  Level FlightAware
09:18AM 21.0290 -100.8820 122° Southeast 460 529 39,000  Level FlightAware
09:19AM 20.9730 -100.7870 122° Southeast 458 527 39,000  Level FlightAware
09:20AM 20.9270 -100.7100 123° Southeast 458 527 39,000  Level FlightAware
09:21AM 20.8790 -100.6300 123° Southeast 457 526 39,000  Level FlightAware
09:21AM 20.8320 -100.5510 122° Southeast 457 526 39,000  Level FlightAware
09:22AM 20.7910 -100.4820 122° Southeast 457 526 39,000  Level FlightAware
09:23AM 20.7410 -100.4000 123° Southeast 456 525 39,000  Level FlightAware
09:23AM 20.6950 -100.3230 123° Southeast 454 522 39,000  Level FlightAware
09:24AM 20.6530 -100.2520 122° Southeast 454 522 39,000 -660 Level FlightAware
09:25AM 20.6060 -100.1780 124° Southeast 446 513 38,200 -1,080 Descending FlightAware
09:25AM 20.5580 -100.1130 128° Southeast 447 514 37,600 -2,880 Descending FlightAware
09:26AM 20.5070 -100.0460 129° Southeast 456 525 34,600 -2,940 Descending FlightAware
09:27AM 20.4480 -99.9660 128° Southeast 461 531 33,500 -720 Descending FlightAware
09:28AM 20.3950 -99.8930 128° Southeast 461 531 33,500  Level FlightAware
09:28AM 20.3540 -99.8370 128° Southeast 461 531 33,500  Level FlightAware
09:29AM 20.3000 -99.7640 128° Southeast 461 531 33,500  Level FlightAware
09:30AM 20.2600 -99.7090 128° Southeast 461 531 33,500  Level FlightAware
09:30AM 20.2060 -99.6360 128° Southeast 461 531 33,500  Level FlightAware
09:31AM 20.1660 -99.5810 128° Southeast 461 531 33,500  Level FlightAware
09:32AM 20.1250 -99.5250 128° Southeast 461 531 33,500  Level FlightAware
09:32AM 20.0710 -99.4520 128° Southeast 461 531 33,500  Level FlightAware
09:33AM 20.0310 -99.3970 128° Southeast 461 531 33,500  Level FlightAware
09:34AM 19.9760 -99.3220 128° Southeast 461 531 33,500  Level FlightAware
09:34AM 19.9360 -99.2680 128° Southeast 461 531 33,500  Level FlightAware
09:35AM 19.8820 -99.1950 128° Southeast 461 531 33,500  Level FlightAware
09:36AM 19.8450 -99.1430 127° Southeast 461 531 33,500  Level FlightAware
09:38AM 19.6543 -99.1099 171° South  Level Estimated
09:39AM 19.5474 -99.0913 171° South  Level Estimated
09:40AM 19.4405 -99.0728 171° South  Level Estimated
09:41AM 19.4363 -99.0721 171° South  Level Estimated
09:42AM 19.4363 -99.0721 43° Northeast  Level Estimated
09:43AM 19.4363 -99.0721 43° Northeast  Level Estimated
09:44AM 19.4363 -99.0721 43° Northeast  Level Estimated
09:45AM 19.4363 -99.0721 43° Northeast  Level Estimated
09:46AM 19.4363 -99.0721 43° Northeast  Level Estimated
09:47AM 19.4363 -99.0721 43° Northeast  Level Estimated
09:48AM 19.4363 -99.0721 43° Northeast  Level Estimated
09:49AM 19.4363 -99.0721 43° Northeast  Level Estimated
09:50AM 19.4363 -99.0721 43° Northeast  Level Estimated
09:51AM 19.4363 -99.0721 43° Northeast  Level Estimated
09:52AM 19.4363 -99.0721 43° Northeast  Level Estimated
09:53AM 19.4363 -99.0721 43° Northeast  Level Estimated
09:54AM 19.4363 -99.0721 43° Northeast  Level Estimated
09:55AM 19.4363 -99.0721 43° Northeast  Level Estimated